sensor_id;sensor_type;location;lat;lon;timestamp;pressure;altitude;pressure_sealevel;temperature;humidity
71735;BME280;59577;52.122;5.406;2023-04-03T00:00:58;103173.72;;;3.22;74.62
71735;BME280;59577;52.122;5.406;2023-04-03T00:03:25;103185.69;;;3.19;74.35
71735;BME280;59577;52.122;5.406;2023-04-03T00:05:52;103186.78;;;3.18;74.11
71735;BME280;59577;52.122;5.406;2023-04-03T00:08:19;103178.47;;;3.20;74.63
71735;BME280;59577;52.122;5.406;2023-04-03T00:10:45;103192.13;;;3.18;75.08
71735;BME280;59577;52.122;5.406;2023-04-03T00:13:12;103185.06;;;3.12;74.77
71735;BME280;59577;52.122;5.406;2023-04-03T00:15:39;103190.16;;;3.14;74.87
71735;BME280;59577;52.122;5.406;2023-04-03T00:18:15;103188.78;;;3.11;74.64
71735;BME280;59577;52.122;5.406;2023-04-03T00:20:42;103191.38;;;3.06;74.24
71735;BME280;59577;52.122;5.406;2023-04-03T00:23:08;103188.97;;;3.05;74.40
71735;BME280;59577;52.122;5.406;2023-04-03T00:25:35;103189.19;;;3.03;74.83
71735;BME280;59577;52.122;5.406;2023-04-03T00:28:03;103197.47;;;3.01;74.86
71735;BME280;59577;52.122;5.406;2023-04-03T00:30:31;103190.16;;;2.97;74.40
71735;BME280;59577;52.122;5.406;2023-04-03T00:33:03;103191.22;;;2.96;74.66
71735;BME280;59577;52.122;5.406;2023-04-03T00:35:31;103202.97;;;2.95;74.99
71735;BME280;59577;52.122;5.406;2023-04-03T00:37:57;103200.75;;;2.92;74.68
71735;BME280;59577;52.122;5.406;2023-04-03T00:40:26;103194.28;;;2.88;74.97
71735;BME280;59577;52.122;5.406;2023-04-03T00:42:58;103199.06;;;2.86;75.19
71735;BME280;59577;52.122;5.406;2023-04-03T00:47:54;103212.91;;;2.82;75.57
71735;BME280;59577;52.122;5.406;2023-04-03T00:50:22;103211.50;;;2.80;75.82
71735;BME280;59577;52.122;5.406;2023-04-03T00:52:49;103204.00;;;2.77;75.80
71735;BME280;59577;52.122;5.406;2023-04-03T00:55:16;103206.91;;;2.75;76.11
71735;BME280;59577;52.122;5.406;2023-04-03T00:57:45;103210.38;;;2.76;76.31
71735;BME280;59577;52.122;5.406;2023-04-03T01:00:17;103211.09;;;2.71;76.25
71735;BME280;59577;52.122;5.406;2023-04-03T01:02:44;103210.53;;;2.69;76.52
71735;BME280;59577;52.122;5.406;2023-04-03T01:05:12;103207.75;;;2.64;76.63
71735;BME280;59577;52.122;5.406;2023-04-03T01:07:42;103209.94;;;2.67;76.83
71735;BME280;59577;52.122;5.406;2023-04-03T01:10:10;103215.53;;;2.66;77.09
71735;BME280;59577;52.122;5.406;2023-04-03T01:12:39;103214.00;;;2.70;77.17
71735;BME280;59577;52.122;5.406;2023-04-03T01:15:25;103210.53;;;2.69;77.31
71735;BME280;59577;52.122;5.406;2023-04-03T01:17:57;103215.88;;;2.69;77.32
71735;BME280;59577;52.122;5.406;2023-04-03T01:25:42;103220.66;;;2.67;77.14
71735;BME280;59577;52.122;5.406;2023-04-03T01:28:24;103220.53;;;2.62;77.48
71735;BME280;59577;52.122;5.406;2023-04-03T01:31:19;103219.97;;;2.60;77.67
71735;BME280;59577;52.122;5.406;2023-04-03T01:33:47;103215.66;;;2.59;77.78
71735;BME280;59577;52.122;5.406;2023-04-03T01:36:20;103216.13;;;2.56;78.09
71735;BME280;59577;52.122;5.406;2023-04-03T01:38:47;103212.91;;;2.54;78.34
71735;BME280;59577;52.122;5.406;2023-04-03T01:41:14;103213.13;;;2.52;78.39
71735;BME280;59577;52.122;5.406;2023-04-03T01:43:50;103211.75;;;2.50;78.92
71735;BME280;59577;52.122;5.406;2023-04-03T01:46:17;103214.91;;;2.47;79.01
71735;BME280;59577;52.122;5.406;2023-04-03T01:48:44;103211.91;;;2.43;78.89
71735;BME280;59577;52.122;5.406;2023-04-03T01:51:11;103211.09;;;2.42;79.06
71735;BME280;59577;52.122;5.406;2023-04-03T01:53:37;103211.00;;;2.37;79.38
71735;BME280;59577;52.122;5.406;2023-04-03T01:56:04;103203.44;;;2.34;79.31
71735;BME280;59577;52.122;5.406;2023-04-03T01:58:31;103219.25;;;2.36;79.71
71735;BME280;59577;52.122;5.406;2023-04-03T02:00:58;103207.97;;;2.34;79.74
71735;BME280;59577;52.122;5.406;2023-04-03T02:03:27;103214.34;;;2.33;79.89
71735;BME280;59577;52.122;5.406;2023-04-03T02:05:55;103223.19;;;2.33;80.19
71735;BME280;59577;52.122;5.406;2023-04-03T02:08:22;103217.50;;;2.30;80.71
71735;BME280;59577;52.122;5.406;2023-04-03T02:10:49;103234.81;;;2.27;80.69
71735;BME280;59577;52.122;5.406;2023-04-03T02:13:17;103227.50;;;2.22;80.79
71735;BME280;59577;52.122;5.406;2023-04-03T02:15:44;103229.94;;;2.24;81.09
71735;BME280;59577;52.122;5.406;2023-04-03T02:18:12;103233.53;;;2.30;81.76
71735;BME280;59577;52.122;5.406;2023-04-03T02:20:38;103241.53;;;2.30;82.00
71735;BME280;59577;52.122;5.406;2023-04-03T02:23:05;103233.53;;;2.30;82.23
71735;BME280;59577;52.122;5.406;2023-04-03T02:25:32;103241.31;;;2.31;82.32
71735;BME280;59577;52.122;5.406;2023-04-03T02:28:01;103241.31;;;2.31;82.52
71735;BME280;59577;52.122;5.406;2023-04-03T02:30:28;103234.09;;;2.32;82.45
71735;BME280;59577;52.122;5.406;2023-04-03T02:32:55;103236.78;;;2.32;82.67
71735;BME280;59577;52.122;5.406;2023-04-03T02:35:22;103234.00;;;2.26;83.26
71735;BME280;59577;52.122;5.406;2023-04-03T02:37:51;103239.34;;;2.26;83.39
71735;BME280;59577;52.122;5.406;2023-04-03T02:40:18;103232.75;;;2.17;83.19
71735;BME280;59577;52.122;5.406;2023-04-03T02:42:44;103235.53;;;2.11;83.34
71735;BME280;59577;52.122;5.406;2023-04-03T02:45:11;103238.66;;;2.07;83.45
71735;BME280;59577;52.122;5.406;2023-04-03T02:47:37;103239.50;;;2.08;83.69
71735;BME280;59577;52.122;5.406;2023-04-03T02:50:04;103239.97;;;2.05;83.99
71735;BME280;59577;52.122;5.406;2023-04-03T02:52:45;103249.00;;;2.04;84.03
71735;BME280;59577;52.122;5.406;2023-04-03T02:55:14;103247.06;;;1.99;83.89
71735;BME280;59577;52.122;5.406;2023-04-03T02:57:42;103257.50;;;2.01;84.41
71735;BME280;59577;52.122;5.406;2023-04-03T03:00:09;103259.00;;;1.97;84.48
71735;BME280;59577;52.122;5.406;2023-04-03T03:02:36;103259.00;;;1.97;84.64
71735;BME280;59577;52.122;5.406;2023-04-03T03:05:02;103253.09;;;1.95;85.36
71735;BME280;59577;52.122;5.406;2023-04-03T03:07:29;103259.13;;;1.90;85.21
71735;BME280;59577;52.122;5.406;2023-04-03T03:09:56;103263.88;;;1.88;85.57
71735;BME280;59577;52.122;5.406;2023-04-03T03:12:22;103275.03;;;1.85;85.39
71735;BME280;59577;52.122;5.406;2023-04-03T03:14:50;103273.88;;;1.81;85.79
71735;BME280;59577;52.122;5.406;2023-04-03T03:17:17;103275.97;;;1.79;86.08
71735;BME280;59577;52.122;5.406;2023-04-03T03:19:44;103275.75;;;1.80;86.25
71735;BME280;59577;52.122;5.406;2023-04-03T03:22:12;103279.66;;;1.78;86.50
71735;BME280;59577;52.122;5.406;2023-04-03T03:24:38;103273.97;;;1.74;86.66
71735;BME280;59577;52.122;5.406;2023-04-03T03:27:04;103276.06;;;1.72;86.85
71735;BME280;59577;52.122;5.406;2023-04-03T03:29:31;103274.22;;;1.73;87.05
71735;BME280;59577;52.122;5.406;2023-04-03T03:31:58;103271.78;;;1.71;87.00
71735;BME280;59577;52.122;5.406;2023-04-03T03:34:24;103273.06;;;1.68;87.02
71735;BME280;59577;52.122;5.406;2023-04-03T03:36:51;103275.72;;;1.68;87.11
71735;BME280;59577;52.122;5.406;2023-04-03T03:39:23;103273.63;;;1.71;87.11
71735;BME280;59577;52.122;5.406;2023-04-03T03:41:53;103268.75;;;1.67;87.33
71735;BME280;59577;52.122;5.406;2023-04-03T03:44:20;103282.31;;;1.66;87.52
71735;BME280;59577;52.122;5.406;2023-04-03T03:46:47;103281.97;;;1.62;87.54
71735;BME280;59577;52.122;5.406;2023-04-03T03:49:13;103276.28;;;1.59;87.37
71735;BME280;59577;52.122;5.406;2023-04-03T03:51:40;103273.84;;;1.57;87.61
71735;BME280;59577;52.122;5.406;2023-04-03T03:54:07;103282.34;;;1.54;87.71
71735;BME280;59577;52.122;5.406;2023-04-03T03:56:33;103278.47;;;1.50;87.72
71735;BME280;59577;52.122;5.406;2023-04-03T03:59:00;103278.34;;;1.45;87.72
71735;BME280;59577;52.122;5.406;2023-04-03T04:01:26;103277.75;;;1.43;88.20
71735;BME280;59577;52.122;5.406;2023-04-03T04:03:53;103286.81;;;1.42;88.24
71735;BME280;59577;52.122;5.406;2023-04-03T04:06:21;103279.28;;;1.39;88.13
71735;BME280;59577;52.122;5.406;2023-04-03T04:08:48;103287.38;;;1.32;88.02
71735;BME280;59577;52.122;5.406;2023-04-03T04:11:15;103284.34;;;1.28;88.37
71735;BME280;59577;52.122;5.406;2023-04-03T04:13:41;103279.34;;;1.20;88.09
71735;BME280;59577;52.122;5.406;2023-04-03T04:16:08;103286.31;;;1.21;88.46
71735;BME280;59577;52.122;5.406;2023-04-03T04:18:36;103291.03;;;1.19;88.50
71735;BME280;59577;52.122;5.406;2023-04-03T04:21:02;103291.03;;;1.19;88.76
71735;BME280;59577;52.122;5.406;2023-04-03T04:23:29;103297.06;;;1.15;88.63
71735;BME280;59577;52.122;5.406;2023-04-03T04:25:55;103299.97;;;1.13;88.84
71735;BME280;59577;52.122;5.406;2023-04-03T04:28:31;103295.06;;;1.10;89.13
71735;BME280;59577;52.122;5.406;2023-04-03T04:30:58;103295.06;;;1.10;89.28
71735;BME280;59577;52.122;5.406;2023-04-03T04:33:44;103294.72;;;1.06;89.33
71735;BME280;59577;52.122;5.406;2023-04-03T04:36:13;103303.97;;;1.04;89.50
71735;BME280;59577;52.122;5.406;2023-04-03T04:38:41;103300.94;;;1.00;89.50
71735;BME280;59577;52.122;5.406;2023-04-03T04:41:08;103302.56;;;1.01;89.56
71735;BME280;59577;52.122;5.406;2023-04-03T04:43:34;103304.78;;;1.04;89.71
71735;BME280;59577;52.122;5.406;2023-04-03T04:46:13;103307.25;;;1.06;89.63
71735;BME280;59577;52.122;5.406;2023-04-03T04:48:41;103307.03;;;1.07;89.86
71735;BME280;59577;52.122;5.406;2023-04-03T04:51:07;103308.63;;;1.08;89.62
71735;BME280;59577;52.122;5.406;2023-04-03T04:53:34;103315.81;;;1.08;89.71
71735;BME280;59577;52.122;5.406;2023-04-03T04:56:01;103311.97;;;1.04;89.57
71735;BME280;59577;52.122;5.406;2023-04-03T04:58:28;103308.25;;;1.05;89.85
71735;BME280;59577;52.122;5.406;2023-04-03T05:01:02;103308.72;;;1.02;89.79
71735;BME280;59577;52.122;5.406;2023-04-03T05:03:29;103310.00;;;0.99;90.03
71735;BME280;59577;52.122;5.406;2023-04-03T05:05:56;103310.78;;;1.00;89.81
71735;BME280;59577;52.122;5.406;2023-04-03T05:08:22;103313.69;;;0.98;89.98
71735;BME280;59577;52.122;5.406;2023-04-03T05:10:49;103317.41;;;0.97;90.06
71735;BME280;59577;52.122;5.406;2023-04-03T05:13:16;103316.13;;;1.00;90.21
71735;BME280;59577;52.122;5.406;2023-04-03T05:15:42;103315.91;;;1.01;90.06
71735;BME280;59577;52.122;5.406;2023-04-03T05:18:09;103319.38;;;1.02;90.03
71735;BME280;59577;52.122;5.406;2023-04-03T05:20:35;103320.22;;;1.02;89.71
71735;BME280;59577;52.122;5.406;2023-04-03T05:23:11;103320.56;;;1.06;89.98
71735;BME280;59577;52.122;5.406;2023-04-03T05:25:38;103328.34;;;1.07;89.94
71735;BME280;59577;52.122;5.406;2023-04-03T05:28:05;103321.38;;;1.06;90.02
71735;BME280;59577;52.122;5.406;2023-04-03T05:30:34;103330.78;;;1.09;89.73
71735;BME280;59577;52.122;5.406;2023-04-03T05:33:02;103332.41;;;1.10;89.76
71735;BME280;59577;52.122;5.406;2023-04-03T05:35:28;103329.75;;;1.10;89.66
71735;BME280;59577;52.122;5.406;2023-04-03T05:37:55;103338.31;;;1.12;89.68
71735;BME280;59577;52.122;5.406;2023-04-03T05:40:22;103331.53;;;1.16;89.63
71735;BME280;59577;52.122;5.406;2023-04-03T05:42:48;103332.69;;;1.20;89.52
71735;BME280;59577;52.122;5.406;2023-04-03T05:45:15;103339.44;;;1.65;89.71
71735;BME280;59577;52.122;5.406;2023-04-03T05:47:41;103330.03;;;3.38;88.85
71735;BME280;59577;52.122;5.406;2023-04-03T05:50:08;103339.75;;;5.72;84.89
71735;BME280;59577;52.122;5.406;2023-04-03T05:52:37;103330.06;;;7.91;76.33
71735;BME280;59577;52.122;5.406;2023-04-03T05:55:04;103342.00;;;9.60;70.13
71735;BME280;59577;52.122;5.406;2023-04-03T05:57:31;103333.41;;;11.03;65.40
71735;BME280;59577;52.122;5.406;2023-04-03T05:59:58;103333.16;;;12.72;59.07
71735;BME280;59577;52.122;5.406;2023-04-03T06:02:25;103335.72;;;13.73;54.65
71735;BME280;59577;52.122;5.406;2023-04-03T06:04:52;103341.28;;;14.30;51.04
71735;BME280;59577;52.122;5.406;2023-04-03T06:07:21;103349.28;;;14.27;49.44
71735;BME280;59577;52.122;5.406;2023-04-03T06:09:50;103346.06;;;15.52;47.60
71735;BME280;59577;52.122;5.406;2023-04-03T06:12:18;103335.59;;;16.19;44.97
71735;BME280;59577;52.122;5.406;2023-04-03T06:14:45;103339.56;;;16.81;41.41
71735;BME280;59577;52.122;5.406;2023-04-03T06:17:12;103344.66;;;16.91;41.54
71735;BME280;59577;52.122;5.406;2023-04-03T06:19:39;103334.66;;;17.17;40.39
71735;BME280;59577;52.122;5.406;2023-04-03T06:22:06;103344.03;;;15.14;41.33
71735;BME280;59577;52.122;5.406;2023-04-03T06:24:42;103358.19;;;13.79;42.84
71735;BME280;59577;52.122;5.406;2023-04-03T06:27:10;103353.19;;;11.22;47.36
71735;BME280;59577;52.122;5.406;2023-04-03T06:29:38;103363.53;;;9.70;49.77
71735;BME280;59577;52.122;5.406;2023-04-03T06:32:04;103357.88;;;9.32;51.99
71735;BME280;59577;52.122;5.406;2023-04-03T06:34:31;103351.56;;;9.02;53.17
71735;BME280;59577;52.122;5.406;2023-04-03T06:36:58;103360.78;;;7.90;55.03
71735;BME280;59577;52.122;5.406;2023-04-03T06:39:28;103366.28;;;8.81;56.07
71735;BME280;59577;52.122;5.406;2023-04-03T06:41:55;103367.84;;;9.37;52.42
71735;BME280;59577;52.122;5.406;2023-04-03T06:44:23;103371.53;;;7.39;55.74
71735;BME280;59577;52.122;5.406;2023-04-03T06:47:05;103378.09;;;6.27;58.94
71735;BME280;59577;52.122;5.406;2023-04-03T06:49:31;103368.22;;;7.06;59.78
71735;BME280;59577;52.122;5.406;2023-04-03T06:51:58;103382.94;;;6.30;59.79
71735;BME280;59577;52.122;5.406;2023-04-03T06:54:27;103387.50;;;5.37;61.33
71735;BME280;59577;52.122;5.406;2023-04-03T06:56:54;103387.91;;;5.51;63.71
71735;BME280;59577;52.122;5.406;2023-04-03T06:59:21;103388.28;;;7.71;62.37
71735;BME280;59577;52.122;5.406;2023-04-03T07:01:47;103385.28;;;9.15;57.91
71735;BME280;59577;52.122;5.406;2023-04-03T07:04:14;103382.88;;;8.07;56.37
71735;BME280;59577;52.122;5.406;2023-04-03T07:06:41;103391.28;;;6.76;59.62
71735;BME280;59577;52.122;5.406;2023-04-03T07:09:09;103399.31;;;9.22;59.42
71735;BME280;59577;52.122;5.406;2023-04-03T07:11:37;103396.03;;;13.44;49.67
71735;BME280;59577;52.122;5.406;2023-04-03T07:14:03;103387.94;;;15.83;44.15
71735;BME280;59577;52.122;5.406;2023-04-03T07:16:30;103386.41;;;18.22;40.31
71735;BME280;59577;52.122;5.406;2023-04-03T07:18:57;103396.31;;;18.88;35.87
71735;BME280;59577;52.122;5.406;2023-04-03T07:21:24;103386.50;;;18.63;37.14
71735;BME280;59577;52.122;5.406;2023-04-03T07:23:57;103397.34;;;19.52;34.26
71735;BME280;59577;52.122;5.406;2023-04-03T07:26:48;103393.72;;;19.77;33.89
71735;BME280;59577;52.122;5.406;2023-04-03T07:29:18;103393.63;;;20.37;33.15
71735;BME280;59577;52.122;5.406;2023-04-03T07:31:48;103404.09;;;20.31;31.38
71735;BME280;59577;52.122;5.406;2023-04-03T07:34:15;103397.78;;;19.83;31.15
71735;BME280;59577;52.122;5.406;2023-04-03T07:36:42;103403.19;;;19.51;32.60
71735;BME280;59577;52.122;5.406;2023-04-03T07:39:22;103401.34;;;19.83;31.47
71735;BME280;59577;52.122;5.406;2023-04-03T07:41:49;103407.13;;;20.10;29.99
71735;BME280;59577;52.122;5.406;2023-04-03T07:44:25;103404.81;;;19.96;30.56
71735;BME280;59577;52.122;5.406;2023-04-03T07:46:52;103403.34;;;20.50;29.42
71735;BME280;59577;52.122;5.406;2023-04-03T07:49:18;103411.56;;;19.70;30.45
71735;BME280;59577;52.122;5.406;2023-04-03T07:51:59;103411.59;;;19.14;31.27
71735;BME280;59577;52.122;5.406;2023-04-03T07:54:25;103409.59;;;19.55;30.33
71735;BME280;59577;52.122;5.406;2023-04-03T07:56:58;103407.84;;;19.63;30.66
71735;BME280;59577;52.122;5.406;2023-04-03T07:59:25;103405.94;;;20.43;30.31
71735;BME280;59577;52.122;5.406;2023-04-03T08:02:05;103403.84;;;20.88;28.29
71735;BME280;59577;52.122;5.406;2023-04-03T08:04:32;103407.22;;;19.98;29.88
71735;BME280;59577;52.122;5.406;2023-04-03T08:07:00;103408.47;;;19.28;29.25
71735;BME280;59577;52.122;5.406;2023-04-03T08:09:41;103414.72;;;19.57;29.84
71735;BME280;59577;52.122;5.406;2023-04-03T08:12:08;103406.66;;;19.20;30.17
71735;BME280;59577;52.122;5.406;2023-04-03T08:14:49;103416.69;;;19.56;30.19
71735;BME280;59577;52.122;5.406;2023-04-03T08:17:15;103414.84;;;20.20;28.79
71735;BME280;59577;52.122;5.406;2023-04-03T08:19:42;103417.03;;;19.26;29.29
71735;BME280;59577;52.122;5.406;2023-04-03T08:22:21;103421.34;;;18.25;30.03
71735;BME280;59577;52.122;5.406;2023-04-03T08:24:48;103415.19;;;18.16;29.34
71735;BME280;59577;52.122;5.406;2023-04-03T08:27:39;103422.47;;;17.78;29.54
71735;BME280;59577;52.122;5.406;2023-04-03T08:30:06;103427.81;;;17.41;29.46
71735;BME280;59577;52.122;5.406;2023-04-03T08:36:25;103432.31;;;18.25;31.04
71735;BME280;59577;52.122;5.406;2023-04-03T08:39:12;103435.84;;;17.46;29.85
71735;BME280;59577;52.122;5.406;2023-04-03T08:41:41;103438.66;;;17.38;28.67
71735;BME280;59577;52.122;5.406;2023-04-03T08:45:05;103439.59;;;17.21;29.61
71735;BME280;59577;52.122;5.406;2023-04-03T08:48:06;103436.66;;;16.28;27.88
71735;BME280;59577;52.122;5.406;2023-04-03T08:51:23;103450.75;;;15.91;29.40
71735;BME280;59577;52.122;5.406;2023-04-03T08:54:14;103443.50;;;15.60;29.02
71735;BME280;59577;52.122;5.406;2023-04-03T08:56:44;103446.25;;;15.26;29.77
71735;BME280;59577;52.122;5.406;2023-04-03T08:59:26;103440.09;;;14.94;28.45
71735;BME280;59577;52.122;5.406;2023-04-03T09:01:56;103439.31;;;15.02;27.86
71735;BME280;59577;52.122;5.406;2023-04-03T09:04:39;103440.63;;;15.22;30.55
71735;BME280;59577;52.122;5.406;2023-04-03T09:07:16;103431.41;;;16.14;28.75
71735;BME280;59577;52.122;5.406;2023-04-03T09:09:56;103427.59;;;15.97;26.36
71735;BME280;59577;52.122;5.406;2023-04-03T09:12:44;103426.50;;;15.11;27.55
71735;BME280;59577;52.122;5.406;2023-04-03T09:15:25;103436.31;;;14.63;27.05
71735;BME280;59577;52.122;5.406;2023-04-03T09:18:22;103437.28;;;14.59;27.25
71735;BME280;59577;52.122;5.406;2023-04-03T09:21:01;103434.88;;;14.26;28.31
71735;BME280;59577;52.122;5.406;2023-04-03T09:24:06;103432.97;;;14.04;29.01
71735;BME280;59577;52.122;5.406;2023-04-03T09:26:59;103438.06;;;13.97;28.73
71735;BME280;59577;52.122;5.406;2023-04-03T09:29:48;103443.69;;;13.78;27.99
71735;BME280;59577;52.122;5.406;2023-04-03T09:32:41;103434.41;;;13.79;26.87
71735;BME280;59577;52.122;5.406;2023-04-03T09:35:33;103427.00;;;13.93;27.51
71735;BME280;59577;52.122;5.406;2023-04-03T09:38:21;103422.34;;;14.25;27.34
71735;BME280;59577;52.122;5.406;2023-04-03T09:41:16;103422.84;;;14.27;27.77
71735;BME280;59577;52.122;5.406;2023-04-03T09:43:54;103422.75;;;14.09;26.59
71735;BME280;59577;52.122;5.406;2023-04-03T09:49:41;103414.38;;;14.37;26.59
71735;BME280;59577;52.122;5.406;2023-04-03T09:52:23;103405.56;;;14.32;26.54
71735;BME280;59577;52.122;5.406;2023-04-03T09:55:07;103415.22;;;14.15;26.56
71735;BME280;59577;52.122;5.406;2023-04-03T09:57:36;103411.09;;;14.18;26.57
71735;BME280;59577;52.122;5.406;2023-04-03T10:00:04;103404.91;;;14.26;25.57
71735;BME280;59577;52.122;5.406;2023-04-03T10:02:51;103392.34;;;14.16;25.24
71735;BME280;59577;52.122;5.406;2023-04-03T10:05:39;103393.13;;;13.85;25.89
71735;BME280;59577;52.122;5.406;2023-04-03T10:08:33;103389.59;;;13.85;26.60
71735;BME280;59577;52.122;5.406;2023-04-03T10:11:21;103387.59;;;13.99;25.65
71735;BME280;59577;52.122;5.406;2023-04-03T10:23:17;103373.59;;;13.38;25.07
71735;BME280;59577;52.122;5.406;2023-04-03T10:29:09;103366.00;;;13.49;25.53
71735;BME280;59577;52.122;5.406;2023-04-03T10:32:12;103366.84;;;13.58;26.42
71735;BME280;59577;52.122;5.406;2023-04-03T10:41:19;103345.16;;;13.44;26.55
71735;BME280;59577;52.122;5.406;2023-04-03T10:44:10;103340.72;;;13.48;26.93
71735;BME280;59577;52.122;5.406;2023-04-03T10:46:53;103348.59;;;13.81;27.57
71735;BME280;59577;52.122;5.406;2023-04-03T10:52:21;103342.81;;;14.14;24.60
71735;BME280;59577;52.122;5.406;2023-04-03T10:55:15;103334.47;;;13.48;24.50
71735;BME280;59577;52.122;5.406;2023-04-03T10:57:44;103335.56;;;13.47;25.76
71735;BME280;59577;52.122;5.406;2023-04-03T11:00:23;103328.38;;;13.73;25.27
71735;BME280;59577;52.122;5.406;2023-04-03T11:02:55;103335.59;;;13.78;26.06
71735;BME280;59577;52.122;5.406;2023-04-03T11:05:53;103323.75;;;13.74;26.35
71735;BME280;59577;52.122;5.406;2023-04-03T11:08:28;103336.97;;;13.89;26.72
71735;BME280;59577;52.122;5.406;2023-04-03T11:11:19;103332.59;;;14.20;27.71
71735;BME280;59577;52.122;5.406;2023-04-03T11:14:31;103331.31;;;14.17;26.60
71735;BME280;59577;52.122;5.406;2023-04-03T11:20:16;103314.09;;;13.23;27.12
71735;BME280;59577;52.122;5.406;2023-04-03T11:23:24;103318.59;;;13.05;27.28
71735;BME280;59577;52.122;5.406;2023-04-03T11:26:12;103317.22;;;12.93;27.80
71735;BME280;59577;52.122;5.406;2023-04-03T11:29:02;103315.72;;;12.73;27.85
71735;BME280;59577;52.122;5.406;2023-04-03T11:34:52;103325.59;;;12.83;29.79
71735;BME280;59577;52.122;5.406;2023-04-03T11:43:26;103316.56;;;13.10;29.48
71735;BME280;59577;52.122;5.406;2023-04-03T11:46:09;103313.59;;;12.98;28.82
71735;BME280;59577;52.122;5.406;2023-04-03T11:54:34;103302.16;;;12.73;28.84
71735;BME280;59577;52.122;5.406;2023-04-03T11:58:32;103311.88;;;12.38;28.91
71735;BME280;59577;52.122;5.406;2023-04-03T12:08:48;103293.75;;;11.92;30.36
71735;BME280;59577;52.122;5.406;2023-04-03T12:11:33;103294.25;;;11.61;30.57
71735;BME280;59577;52.122;5.406;2023-04-03T12:14:12;103285.91;;;11.57;29.82
71735;BME280;59577;52.122;5.406;2023-04-03T12:16:54;103290.22;;;11.44;29.77
71735;BME280;59577;52.122;5.406;2023-04-03T12:19:44;103283.91;;;11.49;29.42
71735;BME280;59577;52.122;5.406;2023-04-03T12:22:18;103276.31;;;11.32;29.62
71735;BME280;59577;52.122;5.406;2023-04-03T12:24:53;103264.72;;;11.45;30.26
71735;BME280;59577;52.122;5.406;2023-04-03T12:27:28;103272.69;;;11.37;30.10
71735;BME280;59577;52.122;5.406;2023-04-03T12:30:18;103260.72;;;11.71;31.66
71735;BME280;59577;52.122;5.406;2023-04-03T12:33:20;103254.31;;;11.66;31.38
71735;BME280;59577;52.122;5.406;2023-04-03T12:36:15;103255.09;;;11.53;30.67
71735;BME280;59577;52.122;5.406;2023-04-03T12:39:17;103255.09;;;11.53;30.38
71735;BME280;59577;52.122;5.406;2023-04-03T12:45:20;103237.97;;;11.39;30.77
71735;BME280;59577;52.122;5.406;2023-04-03T12:47:52;103247.03;;;11.48;31.67
71735;BME280;59577;52.122;5.406;2023-04-03T12:50:31;103236.25;;;11.29;32.05
71735;BME280;59577;52.122;5.406;2023-04-03T12:53:02;103244.25;;;11.20;32.13
71735;BME280;59577;52.122;5.406;2023-04-03T12:55:30;103221.50;;;11.35;31.81
71735;BME280;59577;52.122;5.406;2023-04-03T12:57:57;103217.47;;;11.33;32.64
71735;BME280;59577;52.122;5.406;2023-04-03T13:00:43;103223.81;;;11.56;32.26
71735;BME280;59577;52.122;5.406;2023-04-03T13:03:30;103212.56;;;11.48;31.16
71735;BME280;59577;52.122;5.406;2023-04-03T13:06:01;103210.66;;;11.35;32.25
71735;BME280;59577;52.122;5.406;2023-04-03T13:08:30;103211.47;;;11.36;33.27
71735;BME280;59577;52.122;5.406;2023-04-03T13:11:14;103193.34;;;11.31;32.21
71735;BME280;59577;52.122;5.406;2023-04-03T13:14:03;103209.47;;;11.55;32.54
71735;BME280;59577;52.122;5.406;2023-04-03T13:16:34;103208.28;;;11.61;32.34
71735;BME280;59577;52.122;5.406;2023-04-03T13:19:01;103212.78;;;11.52;31.98
71735;BME280;59577;52.122;5.406;2023-04-03T13:21:28;103211.16;;;11.37;33.40
71735;BME280;59577;52.122;5.406;2023-04-03T13:24:11;103206.66;;;11.60;32.86
71735;BME280;59577;52.122;5.406;2023-04-03T13:26:47;103196.56;;;11.33;31.65
71735;BME280;59577;52.122;5.406;2023-04-03T13:29:28;103199.38;;;11.28;32.27
71735;BME280;59577;52.122;5.406;2023-04-03T13:32:23;103190.97;;;11.43;33.13
71735;BME280;59577;52.122;5.406;2023-04-03T13:34:51;103201.72;;;11.48;33.03
71735;BME280;59577;52.122;5.406;2023-04-03T13:37:26;103200.34;;;11.51;33.53
71735;BME280;59577;52.122;5.406;2023-04-03T13:42:37;103195.69;;;11.38;33.51
71735;BME280;59577;52.122;5.406;2023-04-03T13:45:17;103201.69;;;11.35;33.65
71735;BME280;59577;52.122;5.406;2023-04-03T13:47:45;103195.31;;;11.44;32.56
71735;BME280;59577;52.122;5.406;2023-04-03T13:50:24;103195.56;;;11.29;32.78
71735;BME280;59577;52.122;5.406;2023-04-03T13:53:17;103202.50;;;11.21;33.16
71735;BME280;59577;52.122;5.406;2023-04-03T13:58:28;103193.69;;;11.43;33.85
71735;BME280;59577;52.122;5.406;2023-04-03T14:00:59;103202.00;;;11.33;32.19
71735;BME280;59577;52.122;5.406;2023-04-03T14:03:43;103192.81;;;11.15;32.53
71735;BME280;59577;52.122;5.406;2023-04-03T14:06:13;103187.13;;;11.17;33.10
71735;BME280;59577;52.122;5.406;2023-04-03T14:08:42;103178.56;;;11.09;32.69
71735;BME280;59577;52.122;5.406;2023-04-03T14:11:20;103177.31;;;11.02;32.63
71735;BME280;59577;52.122;5.406;2023-04-03T14:13:49;103185.78;;;11.14;34.05
71735;BME280;59577;52.122;5.406;2023-04-03T14:16:31;103176.78;;;11.19;32.84
71735;BME280;59577;52.122;5.406;2023-04-03T14:18:58;103176.56;;;11.15;33.74
71735;BME280;59577;52.122;5.406;2023-04-03T14:21:25;103169.41;;;11.05;33.27
71735;BME280;59577;52.122;5.406;2023-04-03T14:24:01;103164.97;;;10.96;33.97
71735;BME280;59577;52.122;5.406;2023-04-03T14:26:28;103158.53;;;10.91;34.14
71735;BME280;59577;52.122;5.406;2023-04-03T14:29:12;103155.34;;;11.03;34.27
71735;BME280;59577;52.122;5.406;2023-04-03T14:31:41;103141.81;;;11.17;34.32
71735;BME280;59577;52.122;5.406;2023-04-03T14:34:10;103155.59;;;11.21;34.58
71735;BME280;59577;52.122;5.406;2023-04-03T14:36:44;103146.44;;;11.17;34.17
71735;BME280;59577;52.122;5.406;2023-04-03T14:39:17;103136.28;;;11.08;33.36